Weather observations for the past three days for
Camden / Harrell Field
Imperial (Metric)
Date Time (cdt) Wind (mph) Vis. (mi.) Weather Sky Cond. Temperature (ºF) Relative Humidity Wind Chill (°F) Heat Index (°F) Pressure Precipitation (in)
Air Dwpt 6 hour altimeter (in) sea level (mb) 1 hr 3 hr 6 hr
Max. Min.
07 06:55 N 3 10.00 Fair CLR 50.5 49.6 53.1 49.1 97% 30.05 0.0
07 06:35 N 5 10.00 Fair CLR 49.3 48.7 98% 48 30.05 0.0
07 06:15 N 3 10.00 Fair CLR 50.2 49.3 97% 30.05 0.0
07 05:55 Calm 10.00 Fair CLR 50.9 49.8 96% 30.03 0.0
07 05:35 N 3 10.00 Fair CLR 50.9 49.8 96% 30.02 0.0
07 05:15 N 5 10.00 Fair CLR 51.3 50 95% 30.02 0.0
07 04:55 N 5 10.00 Fair CLR 51.6 50.4 95% 30.03 0.0
07 04:35 N 6 10.00 Fair CLR 51.6 50.5 96% 30.02 0.0
07 04:15 N 6 10.00 Fair CLR 50.7 50 97% 30.01 0.0
07 03:55 Calm 10.00 Partly Cloudy FEW044 SCT260 52 50.5 95% 30 0.0
07 03:35 N 3 10.00 Mostly Cloudy BKN044 52.7 50.9 94% 30.01 0.0
07 03:15 N 3 10.00 Mostly Cloudy BKN045 52.9 51.1 94% 30.01 0.0
07 02:55 NW 3 10.00 Overcast OVC045 52.9 50.7 92% 30.02 0.0
07 02:35 N 3 10.00 Mostly Cloudy BKN045 52.9 50.7 92% 30.02 0.0
07 02:15 N 3 10.00 A Few Clouds FEW047 52.2 50.4 94% 30.02 0.0
07 01:55 Vrbl 3 10.00 A Few Clouds FEW046 53.1 50.7 92% 30.03 0.0
07 01:35 N 6 10.00 Partly Cloudy FEW046 SCT060 53.1 50.5 91% 30.03 0.0
07 01:15 N 6 10.00 A Few Clouds FEW045 52.7 50.2 91% 30.03 0.0
07 00:55 NW 6 10.00 Mostly Cloudy BKN044 53.2 50 54 53.2 89% 30.03 0.0 0.01
07 00:35 N 8 10.00 Overcast OVC043 53.4 49.8 88% 30.04 0.0
07 00:15 N 6 10.00 Mostly Cloudy BKN042 53.4 49.6 87% 30.03 0.0
06 23:55 N 5 10.00 Overcast OVC040 53.6 49.3 85% 30.02 0.0
06 23:35 N 5 10.00 Mostly Cloudy BKN038 53.6 49.5 86% 30.02 0.0
06 23:15 N 9 10.00 Mostly Cloudy SCT038 BKN055 53.6 49.1 85% 30.01 0.0
06 22:55 NE 6 10.00 Fair CLR 53.6 48.9 84% 30.02 0.0
06 22:35 N 6 10.00 A Few Clouds FEW060 53.8 48.7 83% 30.01 0.0
06 22:15 N 7 10.00 Mostly Cloudy BKN060 54 48.9 83% 30.01 0.0
06 21:55 NE 7 10.00 Partly Cloudy SCT055 54 48.7 83% 30 0.0 0.01
06 21:35 NE 6 10.00 Partly Cloudy SCT055 54 49.1 84% 30 0.0
06 21:15 N 5 10.00 Mostly Cloudy SCT050 BKN060 54 49.5 85% 29.99 0.0
06 20:55 N 7 10.00 Thunderstorm in Vicinity BKN050 53.8 50 87% 29.98 0.0
06 20:35 N 7 10.00 Thunderstorm in Vicinity FEW049 53.8 49.5 85% 29.98 0.0
06 20:15 N 5 10.00 A Few Clouds FEW015 53.8 49.6 86% 29.96 0.0
06 19:55 NE 7 10.00 Mostly Cloudy BKN015 53.6 49.6 87% 29.94 0.0 0.01
06 19:35 NE 8 10.00 Mostly Cloudy BKN014 53.8 49.5 85% 29.94 0.0 0.01
06 19:15 NE 10 G 17 10.00 Overcast OVC012 53.6 49.5 86% 29.95 0.0
06 18:55 N 9 10.00 Overcast OVC012 54.3 50.2 56.5 54.1 86% 29.96 0.0
06 18:35 N 8 10.00 Overcast OVC010 54.3 50.5 87% 29.96 0.0
06 17:55 N 13 10.00 Overcast OVC011 55 51.8 89% 29.95 0.0
06 17:35 N 9 10.00 Overcast OVC012 55.8 52 87% 29.92 0.0
06 17:15 NE 6 10.00 Overcast OVC014 56.1 51.8 86% 29.93 0.0
06 16:55 NE 8 10.00 Overcast OVC014 56.1 51.6 85% 29.94 0.0
06 16:35 NE 3 10.00 Overcast OVC013 56.3 51.8 85% 29.93 0.0
06 16:15 NE 8 10.00 Overcast OVC013 56.1 51.4 84% 29.91 0.0
06 15:55 NE 8 10.00 Overcast OVC013 56.1 51.4 84% 29.9 0.0
06 15:35 E 8 10.00 Overcast OVC012 55.6 51.1 85% 29.92 0.0
06 15:15 NE 12 10.00 Overcast OVC011 55.2 51.4 87% 29.87 0.0
06 14:55 NE 7 10.00 Overcast OVC010 55.2 51.8 88% 29.92 0.0
06 14:35 Vrbl 7 10.00 Overcast OVC010 54.7 51.4 89% 29.95 0.0
06 14:15 N 8 10.00 Overcast OVC010 55 51.6 88% 29.95 0.0
06 13:55 NE 9 10.00 Overcast OVC009 54.9 51.4 88% 29.98 0.0
06 13:35 N 13 10.00 Overcast OVC009 54.7 51.3 88% 29.99 0.0
06 13:15 N 12 10.00 Overcast OVC009 55.2 52 89% 29.98 0.0
06 12:55 N 9 10.00 Overcast OVC008 54.9 52 58.6 54 90% 29.99 0.0
06 12:35 N 9 10.00 Overcast OVC009 54.3 51.6 91% 29.99 0.0
06 12:15 N 7 10.00 Overcast OVC008 54.7 52 91% 29.99 0.0
06 11:55 N 9 10.00 Overcast OVC008 54.3 52 92% 29.97 0.0
06 11:35 NE 9 10.00 Overcast OVC008 54.1 51.8 92% 29.96 0.0
06 11:15 NE 8 8.00 Overcast OVC007 54 52.2 94% 29.97 0.0
06 10:55 N 10 6.00 Fog/Mist OVC007 54.1 52.3 94% 29.96 0.0
06 10:35 N 13 3.00 Light Rain Fog/Mist OVC005 54.1 52.9 96% 29.95 0.0
06 10:15 NE 7 4.00 Light Rain Fog/Mist OVC006 54 52.7 96% 29.95 0.0
06 09:55 N 7 5.00 Light Rain Fog/Mist OVC007 54.3 52.7 94% 29.94 0.0
06 09:35 N 9 6.00 Light Rain Fog/Mist OVC008 54.5 52.7 94% 29.93 0.0
06 09:15 N 10 9.00 Light Rain BKN010 OVC017 54.9 52.7 92% 29.92 0.0
06 08:55 N 10 9.00 Light Rain OVC009 55.4 53.4 93% 29.92 0.0
06 08:35 N 8 8.00 Light Rain OVC009 55.6 53.6 93% 29.91 0.0
06 08:15 N 12 10.00 Overcast OVC010 55.6 52.9 91% 29.91 0.0
06 07:55 N 9 10.00 Overcast OVC008 56.5 54.3 93% 29.88 0.0
06 07:35 N 7 10.00 Overcast OVC007 57 55.4 94% 29.87 0.0
06 07:15 N 10 8.00 Light Rain OVC008 57.9 56.3 94% 29.86 0.0
06 06:55 N 10 8.00 Light Rain BKN008 OVC017 58.8 57.4 76.3 58.8 95% 29.84 0.0
06 06:35 NE 8 10.00 Light Rain SCT008 OVC015 59.5 57.7 94% 29.83 0.0
06 06:15 N 13 G 18 10.00 Overcast OVC013 61.2 59 93% 29.83 0.0
06 05:55 N 17 G 23 4.00 Light Rain Fog/Mist BKN013 BKN019 63.9 61.5 92% 29.8 0.0
06 05:35 N 6 6.00 Light Rain Fog/Mist SCT018 74.8 71.4 89% 29.79 0.0
06 05:15 SW 3 2.50 Fog/Mist CLR 75 71.2 88% 74 29.77 0.0
06 04:55 S 5 3.00 Fog/Mist CLR 75.2 71.4 88% 75 29.77 0.0
06 04:35 SW 5 10.00 A Few Clouds FEW019 75.6 71.2 87% 76 29.76 0.0
06 04:15 SW 8 10.00 A Few Clouds FEW019 76.1 71.2 85% 77 29.77 0.0
06 03:55 SW 7 10.00 Partly Cloudy SCT019 75.7 71.2 86% 76 29.75 0.0
06 03:35 SW 9 10.00 Partly Cloudy SCT018 75.6 71.1 86% 76 29.74 0.0
06 03:15 SW 8 10.00 A Few Clouds FEW017 75.2 71.2 88% 75 29.72 0.0
06 02:55 S 10 10.00 A Few Clouds FEW018 74.8 71.2 89% 29.71 0.0
06 02:35 S 9 9.00 Fair CLR 74.7 71.2 89% 29.73 0.0
06 02:15 S 9 10.00 Fair CLR 74.3 71.2 90% 29.73 0.0
06 01:55 S 8 10.00 Fair CLR 74.3 71.2 90% 29.73 0.0
06 01:35 S 10 10.00 Fair CLR 74.3 71.2 90% 29.74 0.0
06 00:55 SW 9 10.00 A Few Clouds FEW220 74.3 71.2 79.9 74.3 90% 29.75 0.0
06 00:35 S 9 10.00 A Few Clouds FEW220 74.5 71.2 90% 29.73 0.0
06 00:15 S 9 10.00 Fair CLR 74.3 71.2 90% 29.74 0.0
05 23:55 S 9 10.00 Fair CLR 74.3 71.2 90% 29.74 0.0
05 23:35 S 9 10.00 Fair CLR 74.5 71.1 89% 29.74 0.0
05 23:15 S 8 10.00 A Few Clouds FEW210 74.7 71.1 89% 29.74 0.0
05 22:55 S 9 10.00 Fair CLR 75 71.1 88% 75 29.73 0.0
05 22:35 S 10 10.00 Fair CLR 75 71.1 88% 75 29.72 0.0
05 22:15 S 7 10.00 Fair CLR 75 71.1 88% 75 29.71 0.0
05 21:55 S 9 10.00 Fair CLR 75.4 70.9 86% 75 29.72 0.0
05 21:35 S 7 10.00 Fair CLR 75.2 71.1 87% 75 29.71 0.0
05 21:15 S 7 10.00 Fair CLR 75.2 70.9 87% 75 29.71 0.0
05 20:55 S 5 10.00 Fair CLR 75.2 70.7 86% 75 29.7 0.0
05 20:35 S 5 10.00 Fair CLR 76.5 70.9 83% 78 29.7 0.0
05 20:15 S 7 10.00 Fair CLR 77 70.9 81% 79 29.69 0.0
05 19:55 S 8 10.00 Fair CLR 77.5 70.9 80% 79 29.69 0.0
05 19:35 S 7 10.00 Fair CLR 78.1 70.9 79% 80 29.68 0.0
05 19:15 S 6 10.00 Fair CLR 78.8 70.5 76% 82 29.68 0.0
05 18:55 S 10 10.00 Fair CLR 80.1 70.3 82 70 72% 83 29.67 0.0
05 18:35 S 6 10.00 Fair CLR 81.7 71.4 71% 86 29.67 0.0
05 18:15 S 10 10.00 Fair CLR 81.9 71.1 70% 86 29.68 0.0
05 17:55 S 9 9.00 Fair CLR 80.6 70.2 71% 84 29.68 0.0
05 17:35 S 12 9.00 Fair CLR 80.8 70.3 71% 84 29.68 0.0
05 17:15 S 8 9.00 Fair CLR 80.8 69.4 69% 84 29.68 0.0
05 16:55 S 10 G 16 10.00 A Few Clouds FEW340 82 70.9 69% 86 29.68 0.0
05 16:35 S 9 10.00 A Few Clouds FEW340 81.5 71.1 71% 86 29.68 0.0
05 16:15 S 10 10.00 A Few Clouds FEW300 82 71.1 69% 86 29.69 0.0
05 15:55 S 6 10.00 Partly Cloudy FEW280 SCT360 79.3 70.5 75% 82 29.7 0.0
05 15:35 S 6 9.00 A Few Clouds FEW300 80.1 70.5 73% 83 29.7 0.0
05 15:15 S 6 10.00 A Few Clouds FEW330 78.3 69.8 75% 81 29.7 0.0
05 14:55 S 9 10.00 A Few Clouds FEW310 77 69.3 77% 79 29.71 0.0
05 14:35 SE 8 10.00 Partly Cloudy FEW021 SCT310 SCT360 77.2 69.8 78% 79 29.71 0.0
05 14:15 SE 5 10.00 A Few Clouds FEW021 73.6 68.9 85% 29.74 0.0
05 13:55 SE 5 10.00 A Few Clouds FEW023 72.7 68.2 86% 29.74 0.0
05 13:35 Calm 10.00 A Few Clouds FEW360 72.1 68.2 87% 29.74 0.0
05 13:15 SE 5 10.00 A Few Clouds FEW014 70.7 67.8 91% 29.74 0.0
04 17:55 S 10 10.00 Fair CLR 78.8 53.6 42% 79 29.81 0.0
04 17:35 S 9 G 21 10.00 Fair CLR 78.8 53.6 42% 79 29.82 0.0
04 17:15 S 14 9.00 Fair CLR 80.6 53.6 39% 80 29.82 0.0
04 16:55 S 10 G 16 8.00 Fair CLR 80.6 55.4 42% 81 29.82 0.0
04 16:35 S 13 10.00 Fair CLR 80.6 53.6 39% 80 29.83 0.0
04 16:15 SW 10 G 18 10.00 Fair CLR 80.6 53.6 39% 80 29.84 0.0
04 15:55 S 14 10.00 Fair CLR 80.6 53.6 39% 80 29.85 0.0
04 15:35 S 14 7.00 Fair CLR 80.6 53.6 39% 80 29.86 0.0
04 15:15 S 14 G 20 9.00 Fair CLR 80.6 53.6 39% 80 29.87 0.0
04 14:55 S 14 10.00 Fair CLR 80.6 53.6 39% 80 29.88 0.0
04 14:35 S 15 G 21 6.00 Fair with Haze CLR 80.6 53.6 39% 80 29.89 0.0
04 14:15 S 12 G 18 5.00 Fair with Haze CLR 80.6 53.6 39% 80 29.9 0.0
04 13:55 SW 12 G 20 10.00 Fair CLR 80.6 53.6 39% 80 29.91 0.0
04 13:35 S 10 G 23 10.00 Fair CLR 80.6 53.6 39% 80 29.92 0.0
04 13:15 S 9 G 21 6.00 Fair with Haze CLR 78.8 53.6 42% 79 29.93 0.0
04 12:55 SW 12 G 21 9.00 Fair CLR 78.8 51.8 39% 79 29.93 0.0
04 12:35 S 16 10.00 Fair CLR 78.8 51.8 39% 79 29.94 0.0
04 12:15 SW 15 G 22 7.00 Fair CLR 77 53.6 44% 78 29.94 0.0
04 11:55 S 13 G 20 10.00 Fair CLR 77 53.6 44% 78 29.95 0.0
04 11:35 SW 9 G 18 10.00 Fair CLR 75.2 53.6 47% 78 29.96 0.0
04 11:15 S 13 6.00 Fair with Haze CLR 75.2 53.6 47% 78 29.97 0.0
04 10:55 S 13 10.00 Fair CLR 73.4 55.4 53% 29.97 0.0
04 10:35 SW 13 G 18 10.00 Fair CLR 73.4 53.6 50% 29.98 0.0
04 10:15 SW 9 10.00 Fair CLR 71.6 55.4 57% 29.98 0.0
04 09:55 SW 12 9.00 Fair CLR 69.8 55.4 60% 29.98 0.0
04 09:35 SW 7 G 14 10.00 Fair CLR 69.8 55.4 60% 29.99 0.0
04 09:15 SW 9 G 16 7.00 Fair CLR 68 53.6 60% 29.98 0.0
04 08:55 SW 9 10.00 Fair CLR 66.2 55.4 68% 29.98 0.0
04 08:35 SW 9 10.00 Fair CLR 64.4 55.4 73% 29.98 0.0
04 08:15 SW 8 G 14 9.00 Fair CLR 64.4 55.4 73% 29.98 0.0
04 07:55 SW 8 10.00 Fair CLR 62.6 55.4 77% 29.98 0.0
04 07:35 S 5 10.00 Fair CLR 60.8 55.4 83% 29.98 0.0
Date Time (cdt) Wind (mph) Vis. (mi.) Weather Sky Cond. Air Dwpt Max. Min. Relative Humidity Wind Chill (°F) Heat Index (°F) altimeter (in) sea level (mb) 1 hr 3 hr 6 hr
6 hour
Temperature (ºF) Pressure Precipitation (in)